Time;durP1;ratioP1;P1;durP2;ratioP2;P2;SDS_P1;SDS_P2;PMS_P1;PMS_P2;Temp;Humidity;BMP_temperature;BMP_pressure;BME280_temperature;BME280_humidity;BME280_pressure;Samples;Min_cycle;Max_cycle;Signal;HPM_P1;HPM_P2
2023/12/16 00:01:51;;;;;;;14.02;7.53;;;;;;;2.78;100.00;99553.38;5047348;28;20116;-63
2023/12/16 00:04:33;;;;;;;16.02;7.50;;;;;;;2.89;100.00;99579.09;5053403;28;20048;-64
2023/12/16 00:07:00;;;;;;;15.85;8.27;;;;;;;2.96;100.00;99596.28;5053191;28;20036;-63
2023/12/16 00:09:26;;;;;;;16.25;6.97;;;;;;;2.86;100.00;99580.25;5057246;28;20045;-63
2023/12/16 00:11:54;;;;;;;12.10;7.35;;;;;;;2.84;100.00;99578.72;5053947;28;20120;-64
2023/12/16 00:14:21;;;;;;;13.15;6.95;;;;;;;2.83;100.00;99574.34;5045165;28;20041;-63
2023/12/16 00:16:48;;;;;;;11.85;6.57;;;;;;;2.78;100.00;99560.56;5048956;28;20045;-63
2023/12/16 00:19:14;;;;;;;10.93;6.18;;;;;;;2.70;100.00;99559.44;5055056;28;20093;-63
2023/12/16 00:21:41;;;;;;;9.32;5.65;;;;;;;2.66;100.00;99552.75;5056264;28;20449;-63
2023/12/16 00:24:08;;;;;;;13.60;6.55;;;;;;;2.63;100.00;99565.53;5063159;28;20583;-63
2023/12/16 00:26:34;;;;;;;11.98;6.55;;;;;;;2.56;100.00;99558.13;5048581;28;20072;-63
2023/12/16 00:29:01;;;;;;;11.82;6.45;;;;;;;2.57;100.00;99561.63;5056337;28;20051;-63
2023/12/16 00:31:28;;;;;;;10.50;6.78;;;;;;;2.62;100.00;99570.06;5049970;28;20539;-61
2023/12/16 00:33:54;;;;;;;11.27;6.65;;;;;;;2.50;100.00;99555.19;5050050;28;20124;-61
2023/12/16 00:36:21;;;;;;;12.77;6.40;;;;;;;2.40;100.00;99553.34;5056379;28;20049;-59
2023/12/16 00:38:48;;;;;;;12.15;6.10;;;;;;;2.39;100.00;99562.38;5046425;28;20045;-61
2023/12/16 00:41:14;;;;;;;10.65;5.55;;;;;;;2.43;100.00;99568.28;5039818;28;20052;-62
2023/12/16 00:43:41;;;;;;;13.70;6.15;;;;;;;2.44;100.00;99567.28;5053164;28;20499;-62
2023/12/16 00:46:08;;;;;;;10.82;5.43;;;;;;;2.39;100.00;99566.91;5059120;28;20044;-62
2023/12/16 00:48:35;;;;;;;9.68;5.80;;;;;;;2.36;100.00;99577.88;5046379;28;20052;-62
2023/12/16 00:51:02;;;;;;;12.02;5.72;;;;;;;2.40;100.00;99588.13;5045322;28;20033;-61
2023/12/16 00:53:28;;;;;;;11.07;6.60;;;;;;;2.54;100.00;99594.03;5041649;28;20124;-61
2023/12/16 00:55:55;;;;;;;10.40;6.25;;;;;;;2.69;100.00;99587.19;5042767;28;20049;-62
2023/12/16 00:58:22;;;;;;;14.02;7.57;;;;;;;2.65;100.00;99588.47;5044180;28;20036;-61
2023/12/16 01:00:48;;;;;;;12.05;6.70;;;;;;;2.64;100.00;99578.78;5059985;28;20044;-59
2023/12/16 01:03:15;;;;;;;12.50;6.22;;;;;;;2.65;100.00;99576.94;5053039;28;20051;-61
2023/12/16 01:05:42;;;;;;;10.38;6.03;;;;;;;2.73;100.00;99587.78;5055616;28;20095;-62
2023/12/16 01:08:08;;;;;;;10.85;6.10;;;;;;;2.73;100.00;99601.97;5052010;28;20045;-63
2023/12/16 01:10:35;;;;;;;11.00;6.30;;;;;;;2.68;100.00;99590.00;5041795;28;20580;-63
2023/12/16 01:13:02;;;;;;;10.80;6.50;;;;;;;2.77;100.00;99594.50;5055123;28;20037;-63
2023/12/16 01:15:28;;;;;;;10.95;6.50;;;;;;;2.76;100.00;99608.84;5060194;28;20128;-63
2023/12/16 01:17:55;;;;;;;11.90;5.53;;;;;;;2.75;100.00;99606.31;5044559;28;20052;-63
2023/12/16 01:20:23;;;;;;;8.75;5.25;;;;;;;2.63;100.00;99595.81;5046746;28;20475;-63
2023/12/16 01:22:49;;;;;;;10.07;6.13;;;;;;;2.60;100.00;99596.97;5056953;28;20041;-63
2023/12/16 01:25:16;;;;;;;9.95;5.50;;;;;;;2.59;100.00;99595.25;5056133;28;20140;-62
2023/12/16 01:27:43;;;;;;;9.98;6.00;;;;;;;2.64;100.00;99604.66;5064981;28;20610;-63
2023/12/16 01:30:10;;;;;;;10.60;5.65;;;;;;;2.68;100.00;99603.38;5053931;28;20064;-63
2023/12/16 01:32:36;;;;;;;8.73;5.07;;;;;;;2.69;100.00;99607.78;5053993;28;20771;-63
2023/12/16 01:35:03;;;;;;;8.93;5.05;;;;;;;2.62;100.00;99593.28;5054445;28;20108;-63
2023/12/16 01:37:30;;;;;;;9.65;6.00;;;;;;;2.60;100.00;99598.78;5058264;28;20039;-63
2023/12/16 01:39:57;;;;;;;8.43;5.40;;;;;;;2.55;100.00;99604.53;5063835;28;20672;-63
2023/12/16 01:42:23;;;;;;;13.60;5.75;;;;;;;2.46;100.00;99584.88;5050329;28;20067;-63
2023/12/16 01:44:50;;;;;;;9.43;5.93;;;;;;;2.43;100.00;99582.50;5055338;28;20052;-63
2023/12/16 01:47:17;;;;;;;10.23;6.03;;;;;;;2.42;100.00;99575.47;5060863;28;20052;-62
2023/12/16 01:49:44;;;;;;;10.80;6.13;;;;;;;2.42;100.00;99588.81;5056327;28;20131;-63
2023/12/16 01:52:11;;;;;;;9.63;6.05;;;;;;;2.47;100.00;99599.94;5055687;28;20037;-63
2023/12/16 01:54:38;;;;;;;10.80;6.43;;;;;;;2.66;100.00;99637.47;5061824;28;20044;-63
2023/12/16 01:57:06;;;;;;;12.20;6.75;;;;;;;2.68;100.00;99641.69;5058354;28;20049;-63
2023/12/16 01:59:32;;;;;;;13.25;6.88;;;;;;;2.64;100.00;99628.75;5041705;28;20052;-63
2023/12/16 02:01:59;;;;;;;10.05;6.05;;;;;;;2.57;100.00;99610.63;5053263;28;20728;-62
2023/12/16 02:04:26;;;;;;;9.80;6.13;;;;;;;2.58;100.00;99612.28;5056983;28;20055;-62
2023/12/16 02:06:53;;;;;;;12.23;7.03;;;;;;;2.68;100.00;99638.16;5059348;28;20076;-63
2023/12/16 02:09:21;;;;;;;10.05;6.20;;;;;;;2.64;100.00;99629.59;5053923;28;20060;-63
2023/12/16 02:11:48;;;;;;;9.95;6.53;;;;;;;2.60;100.00;99601.44;5053700;28;20059;-62
2023/12/16 02:14:14;;;;;;;10.18;6.10;;;;;;;2.58;100.00;99595.41;5049985;28;20048;-63
2023/12/16 02:16:41;;;;;;;9.32;5.97;;;;;;;2.43;100.00;99585.16;5058659;28;20554;-62
2023/12/16 02:19:25;;;;;;;9.13;6.05;;;;;;;2.44;100.00;99586.00;5052816;28;20044;-62
2023/12/16 02:21:54;;;;;;;11.48;6.28;;;;;;;2.42;100.00;99599.53;5045651;28;20033;-62
2023/12/16 02:24:21;;;;;;;9.90;6.18;;;;;;;2.49;100.00;99618.50;5052560;28;20032;-62
2023/12/16 02:26:48;;;;;;;11.52;7.25;;;;;;;2.56;100.00;99621.44;5052547;28;20125;-62
2023/12/16 02:29:15;;;;;;;12.55;7.30;;;;;;;2.56;100.00;99618.78;5053319;28;20049;-62
2023/12/16 02:31:44;;;;;;;10.68;6.70;;;;;;;2.68;100.00;99633.66;5057347;28;20040;-62
2023/12/16 02:34:11;;;;;;;11.45;6.78;;;;;;;2.60;100.00;99628.19;5058431;28;20055;-62
2023/12/16 02:36:38;;;;;;;11.32;6.30;;;;;;;2.60;100.00;99612.16;5054228;28;20052;-62
2023/12/16 02:39:04;;;;;;;12.65;6.60;;;;;;;2.66;100.00;99624.09;5057442;28;20056;-62
2023/12/16 02:41:31;;;;;;;14.30;6.65;;;;;;;2.65;100.00;99623.25;5045784;28;20411;-63
2023/12/16 02:43:57;;;;;;;9.80;6.03;;;;;;;2.68;100.00;99612.28;5050763;28;20046;-63
2023/12/16 02:46:24;;;;;;;9.52;5.93;;;;;;;2.75;100.00;99606.31;5053848;28;20044;-63
2023/12/16 02:48:51;;;;;;;10.98;5.97;;;;;;;2.75;100.00;99606.31;5052473;28;20037;-62
2023/12/16 02:51:18;;;;;;;10.60;6.40;;;;;;;2.85;100.00;99612.50;5049554;28;20049;-62
2023/12/16 02:53:46;;;;;;;11.10;5.88;;;;;;;2.79;100.00;99602.38;5050691;28;20068;-62
2023/12/16 02:56:12;;;;;;;9.65;6.30;;;;;;;2.70;100.00;99598.75;5060685;28;20076;-63
2023/12/16 02:58:39;;;;;;;10.77;5.78;;;;;;;2.66;100.00;99611.59;5053615;28;20041;-63
2023/12/16 03:01:06;;;;;;;10.02;5.57;;;;;;;2.65;100.00;99609.88;5050608;28;20068;-63
2023/12/16 03:03:34;;;;;;;10.30;6.15;;;;;;;2.51;100.00;99610.34;5057509;28;20159;-63
2023/12/16 03:06:07;;;;;;;13.43;5.85;;;;;;;2.55;100.00;99617.91;5051317;28;20087;-63
2023/12/16 03:08:37;;;;;;;9.15;5.40;;;;;;;2.56;100.00;99619.63;5052286;28;21230;-63
2023/12/16 03:11:04;;;;;;;8.60;5.32;;;;;;;2.49;100.00;99610.50;5054230;28;20516;-63
2023/12/16 03:13:31;;;;;;;10.05;5.90;;;;;;;2.52;100.00;99620.91;5059439;28;20067;-63
2023/12/16 03:15:58;;;;;;;11.88;6.95;;;;;;;2.64;100.00;99637.63;5050862;28;20048;-63
2023/12/16 03:18:24;;;;;;;11.55;6.28;;;;;;;2.67;100.00;99648.03;5054956;28;20114;-63
2023/12/16 03:20:52;;;;;;;11.68;6.50;;;;;;;2.71;100.00;99654.78;5050806;28;20118;-62
2023/12/16 03:23:18;;;;;;;10.52;6.32;;;;;;;2.80;100.00;99660.25;5053679;28;20103;-62
2023/12/16 03:25:45;;;;;;;10.35;5.90;;;;;;;2.79;100.00;99645.19;5051392;28;20045;-62
2023/12/16 03:28:11;;;;;;;10.20;6.40;;;;;;;2.78;100.00;99636.31;5057644;28;20036;-62
2023/12/16 03:30:41;;;;;;;10.63;6.18;;;;;;;2.84;100.00;99640.25;5057216;28;20041;-62
2023/12/16 03:33:08;;;;;;;10.68;6.38;;;;;;;2.86;100.00;99640.94;5060348;28;20102;-62
2023/12/16 03:35:35;;;;;;;9.18;5.75;;;;;;;2.78;100.00;99619.41;5051354;28;20571;-62
2023/12/16 03:38:02;;;;;;;10.18;5.53;;;;;;;2.78;100.00;99622.94;5043978;28;20045;-62
2023/12/16 03:40:29;;;;;;;8.75;5.63;;;;;;;2.90;100.00;99631.63;5058202;28;20413;-63
2023/12/16 03:42:58;;;;;;;10.82;6.13;;;;;;;2.96;100.00;99632.88;5056017;28;20048;-62
2023/12/16 03:45:25;;;;;;;9.80;6.07;;;;;;;2.95;100.00;99631.22;5058833;28;20049;-62
2023/12/16 03:47:51;;;;;;;8.90;5.55;;;;;;;2.96;100.00;99627.53;5062211;28;20044;-62
2023/12/16 03:50:18;;;;;;;10.48;6.50;;;;;;;2.95;100.00;99618.66;5053144;28;20746;-62
2023/12/16 03:52:44;;;;;;;9.38;5.53;;;;;;;2.97;100.00;99619.38;5055538;28;20557;-62
2023/12/16 03:55:12;;;;;;;9.05;6.00;;;;;;;2.98;100.00;99612.16;5047267;28;20098;-62
2023/12/16 03:57:38;;;;;;;9.88;5.70;;;;;;;2.95;100.00;99612.47;5054058;28;20059;-62
2023/12/16 04:00:08;;;;;;;10.18;5.60;;;;;;;2.91;100.00;99611.91;5061605;28;20062;-63
2023/12/16 04:02:38;;;;;;;7.80;5.30;;;;;;;2.86;100.00;99617.72;5053797;28;20044;-62
2023/12/16 04:05:06;;;;;;;11.07;5.97;;;;;;;2.86;100.00;99612.34;5062240;28;20048;-62
2023/12/16 04:07:33;;;;;;;12.18;5.90;;;;;;;2.85;100.00;99607.97;5054220;28;20029;-62
2023/12/16 04:10:00;;;;;;;10.65;5.18;;;;;;;2.80;100.00;99618.28;5048154;28;20049;-62
2023/12/16 04:12:26;;;;;;;11.15;5.55;;;;;;;2.79;100.00;99616.59;5047004;28;20069;-62
2023/12/16 04:14:53;;;;;;;7.38;5.03;;;;;;;2.79;100.00;99621.94;5055496;28;20114;-62
2023/12/16 04:17:20;;;;;;;10.13;5.53;;;;;;;2.73;100.00;99619.88;5062322;28;20646;-63
2023/12/16 04:19:53;;;;;;;10.90;5.68;;;;;;;2.83;100.00;99636.72;5048899;28;20041;-63
2023/12/16 04:22:21;;;;;;;8.38;5.03;;;;;;;2.79;100.00;99635.31;5047959;28;20044;-63
2023/12/16 04:24:50;;;;;;;9.82;5.75;;;;;;;2.69;100.00;99621.97;5056186;28;20101;-63
2023/12/16 04:27:17;;;;;;;9.38;5.88;;;;;;;2.64;100.00;99615.38;5062598;28;20049;-62
2023/12/16 04:29:44;;;;;;;10.95;5.47;;;;;;;2.64;100.00;99618.91;5052626;28;20063;-62
2023/12/16 04:32:10;;;;;;;8.27;5.45;;;;;;;2.63;100.00;99633.28;5045409;28;20045;-62
2023/12/16 04:34:37;;;;;;;8.98;5.65;;;;;;;2.67;100.00;99647.19;5054310;28;20384;-62
2023/12/16 04:37:03;;;;;;;8.88;5.95;;;;;;;2.62;100.00;99634.25;5049438;28;20045;-63
2023/12/16 04:39:30;;;;;;;9.57;5.65;;;;;;;2.58;100.00;99627.50;5051730;28;20082;-62
2023/12/16 04:41:56;;;;;;;9.35;5.57;;;;;;;2.63;100.00;99641.28;5055114;28;20454;-63
2023/12/16 04:44:23;;;;;;;11.18;6.95;;;;;;;2.54;100.00;99626.94;5052216;28;20041;-62
2023/12/16 04:46:49;;;;;;;11.18;7.10;;;;;;;2.49;100.00;99631.03;5057738;28;20531;-62
2023/12/16 04:49:16;;;;;;;12.68;7.15;;;;;;;2.54;100.00;99637.63;5047076;28;20059;-63
2023/12/16 04:51:43;;;;;;;8.88;6.10;;;;;;;2.58;100.00;99640.88;5050121;28;20041;-63
2023/12/16 04:54:09;;;;;;;13.32;7.10;;;;;;;2.62;100.00;99638.75;5044388;28;20044;-62
2023/12/16 04:56:36;;;;;;;12.23;5.85;;;;;;;2.62;100.00;99641.44;5063494;28;20049;-62
2023/12/16 04:59:03;;;;;;;10.63;5.93;;;;;;;2.54;100.00;99626.94;5050634;28;20064;-62
2023/12/16 05:01:29;;;;;;;9.32;6.28;;;;;;;2.51;100.00;99624.53;5063394;28;20128;-63
2023/12/16 05:03:56;;;;;;;8.95;5.68;;;;;;;2.53;100.00;99629.75;5059398;28;20049;-63
2023/12/16 05:06:23;;;;;;;10.07;5.53;;;;;;;2.47;100.00;99626.66;5060635;28;20029;-63
2023/12/16 05:08:49;;;;;;;9.00;5.57;;;;;;;2.48;100.00;99630.19;5049127;28;20772;-63
2023/12/16 05:11:16;;;;;;;7.78;5.15;;;;;;;2.47;100.00;99632.03;5060209;28;20044;-63
2023/12/16 05:13:43;;;;;;;7.40;4.47;;;;;;;2.43;100.00;99622.59;5058836;28;20089;-63
2023/12/16 05:16:10;;;;;;;7.93;5.20;;;;;;;2.34;100.00;99627.00;5058164;28;20044;-63
2023/12/16 05:18:36;;;;;;;10.15;5.85;;;;;;;2.20;100.00;99622.91;5062878;28;20060;-63
2023/12/16 05:21:03;;;;;;;7.78;4.72;;;;;;;2.19;100.00;99628.41;5057574;28;20049;-63
2023/12/16 05:23:30;;;;;;;9.05;5.47;;;;;;;2.19;100.00;99637.28;5044664;28;20645;-63
2023/12/16 05:25:56;;;;;;;9.88;5.80;;;;;;;2.13;100.00;99637.81;5048367;28;20040;-63
2023/12/16 05:28:23;;;;;;;10.13;6.10;;;;;;;2.27;100.00;99659.75;5060622;28;20045;-63
2023/12/16 05:30:49;;;;;;;10.90;6.30;;;;;;;2.24;100.00;99647.53;5059667;28;20036;-63
2023/12/16 05:33:16;;;;;;;9.60;5.78;;;;;;;2.30;100.00;99664.84;5053599;28;20045;-63
2023/12/16 05:35:43;;;;;;;9.75;5.78;;;;;;;2.28;100.00;99658.81;5046707;28;20139;-63
2023/12/16 05:38:09;;;;;;;8.77;5.70;;;;;;;2.30;100.00;99651.47;5051295;28;20578;-63
2023/12/16 05:40:36;;;;;;;9.75;6.20;;;;;;;2.38;100.00;99642.72;5047390;28;21350;-63
2023/12/16 05:43:03;;;;;;;9.57;5.53;;;;;;;2.35;100.00;99641.19;5049811;28;20628;-63
2023/12/16 05:45:29;;;;;;;12.00;6.53;;;;;;;2.45;100.00;99649.19;5060830;28;20033;-63
2023/12/16 05:47:56;;;;;;;9.63;5.93;;;;;;;2.51;100.00;99645.94;5060926;28;20123;-63
2023/12/16 05:50:23;;;;;;;9.80;6.13;;;;;;;2.32;100.00;99628.94;5061990;28;20052;-63
2023/12/16 05:52:49;;;;;;;8.77;5.60;;;;;;;2.40;100.00;99640.75;5044456;28;20500;-63
2023/12/16 05:55:16;;;;;;;11.00;6.30;;;;;;;2.39;100.00;99629.22;5054546;28;20416;-63
2023/12/16 05:57:43;;;;;;;9.43;6.18;;;;;;;2.46;100.00;99634.84;5057579;28;20041;-63
2023/12/16 06:00:10;;;;;;;9.82;6.10;;;;;;;2.41;100.00;99629.94;5044694;28;20067;-63
2023/12/16 06:02:37;;;;;;;9.20;5.30;;;;;;;2.41;100.00;99631.75;5045186;28;20159;-63
2023/12/16 06:05:04;;;;;;;10.55;5.63;;;;;;;2.43;100.00;99633.28;5047702;28;20091;-63
2023/12/16 06:07:31;;;;;;;7.90;5.07;;;;;;;2.40;100.00;99636.25;5054281;28;20546;-63
2023/12/16 06:09:58;;;;;;;9.82;5.80;;;;;;;2.32;100.00;99628.94;5047082;28;20704;-63
2023/12/16 06:12:24;;;;;;;8.45;5.25;;;;;;;2.28;100.00;99637.41;5046700;28;20037;-63
2023/12/16 06:14:51;;;;;;;9.65;5.53;;;;;;;2.22;100.00;99633.47;5057329;28;20052;-63
2023/12/16 06:17:17;;;;;;;11.70;5.72;;;;;;;2.19;100.00;99647.09;5061787;28;20489;-63
2023/12/16 06:19:44;;;;;;;8.73;5.68;;;;;;;2.14;100.00;99646.69;5054680;28;20124;-63
2023/12/16 06:22:11;;;;;;;9.15;5.53;;;;;;;2.07;100.00;99649.91;5050725;28;20059;-63
2023/12/16 06:24:37;;;;;;;9.27;5.32;;;;;;;2.00;100.00;99642.59;5045341;28;20064;-63
2023/12/16 06:27:04;;;;;;;9.82;5.50;;;;;;;1.99;100.00;99654.28;5053165;28;20040;-63
2023/12/16 06:29:30;;;;;;;10.68;5.95;;;;;;;1.94;100.00;99662.72;5052418;28;20087;-63
2023/12/16 06:31:58;;;;;;;9.63;6.13;;;;;;;1.87;100.00;99651.75;5033639;28;20162;-61
2023/12/16 06:34:24;;;;;;;9.63;5.70;;;;;;;1.81;100.00;99655.81;5018421;28;20044;-63
2023/12/16 06:36:51;;;;;;;8.20;5.88;;;;;;;1.74;100.00;99668.03;5042636;28;20532;-63
2023/12/16 06:39:18;;;;;;;8.57;5.45;;;;;;;1.67;100.00;99662.38;5036012;28;20056;-59
2023/12/16 06:41:44;;;;;;;12.90;5.57;;;;;;;1.64;100.00;99668.03;5015409;28;20060;-61
2023/12/16 06:44:11;;;;;;;10.65;5.85;;;;;;;1.63;100.00;99679.69;5058106;28;20485;-63
2023/12/16 06:46:37;;;;;;;10.30;6.55;;;;;;;1.64;100.00;99684.03;5045263;28;20686;-63
2023/12/16 06:49:04;;;;;;;10.45;5.90;;;;;;;1.63;100.00;99682.34;5040179;28;20521;-63
2023/12/16 06:51:31;;;;;;;13.48;5.38;;;;;;;1.40;100.00;99671.88;5046190;28;20051;-63
2023/12/16 06:53:57;;;;;;;8.15;5.38;;;;;;;1.24;100.00;99667.06;5048950;28;20700;-63
2023/12/16 06:56:24;;;;;;;8.52;5.60;;;;;;;1.24;100.00;99664.38;5049367;28;20037;-63
2023/12/16 06:58:51;;;;;;;9.18;5.53;;;;;;;1.17;100.00;99668.56;5053950;28;20169;-63
2023/12/16 07:01:17;;;;;;;11.50;5.43;;;;;;;1.12;100.00;99662.78;5055201;28;20048;-63
2023/12/16 07:03:44;;;;;;;8.80;5.63;;;;;;;1.26;100.00;99682.94;5045179;28;20048;-63
2023/12/16 07:06:11;;;;;;;9.98;5.78;;;;;;;1.46;100.00;99717.69;5049675;28;20052;-62
2023/12/16 07:08:40;;;;;;;9.05;5.57;;;;;;;1.47;100.00;99698.88;5045294;28;20044;-63
2023/12/16 07:11:07;;;;;;;11.07;6.90;;;;;;;1.50;100.00;99693.28;5055542;28;20048;-63
2023/12/16 07:13:33;;;;;;;11.25;6.95;;;;;;;1.58;100.00;99691.75;5042901;28;20045;-63
2023/12/16 07:16:03;;;;;;;11.35;6.55;;;;;;;1.62;100.00;99690.50;5048298;28;20701;-63
2023/12/16 07:18:30;;;;;;;11.30;7.35;;;;;;;1.66;100.00;99689.25;5046472;28;20049;-63
2023/12/16 07:20:57;;;;;;;12.98;6.43;;;;;;;1.65;100.00;99680.38;5052936;28;20192;-63
2023/12/16 07:23:24;;;;;;;15.07;7.85;;;;;;;1.60;100.00;99676.44;5052258;28;20098;-63
2023/12/16 07:25:50;;;;;;;14.02;9.00;;;;;;;1.59;100.00;99675.59;5049037;28;20040;-63
2023/12/16 07:28:18;;;;;;;13.32;7.55;;;;;;;1.60;100.00;99679.09;5060032;28;20739;-64
2023/12/16 07:30:45;;;;;;;11.25;7.13;;;;;;;1.60;100.00;99685.28;5045102;28;20048;-63
2023/12/16 07:33:11;;;;;;;12.25;7.43;;;;;;;1.58;100.00;99678.41;5051702;28;20041;-63
2023/12/16 07:35:38;;;;;;;9.88;6.38;;;;;;;1.54;100.00;99683.16;5050843;28;20136;-64
2023/12/16 07:38:07;;;;;;;11.07;5.82;;;;;;;1.51;100.00;99683.44;5048419;28;20050;-63
2023/12/16 07:40:36;;;;;;;9.48;6.35;;;;;;;1.43;100.00;99682.28;5047501;28;20041;-64
2023/12/16 07:43:03;;;;;;;12.73;6.88;;;;;;;1.47;100.00;99682.03;5048585;28;20110;-63
2023/12/16 07:45:30;;;;;;;10.10;6.10;;;;;;;1.52;100.00;99680.63;5051595;28;20045;-63
2023/12/16 07:47:56;;;;;;;9.75;6.10;;;;;;;1.62;100.00;99685.16;5049902;28;20049;-63
2023/12/16 07:50:23;;;;;;;10.63;6.82;;;;;;;1.65;100.00;99677.72;5046737;28;20071;-63
2023/12/16 07:52:50;;;;;;;8.80;6.78;;;;;;;1.60;100.00;99681.78;5056206;28;20048;-64
2023/12/16 07:55:16;;;;;;;10.80;7.13;;;;;;;1.60;100.00;99682.63;5056452;28;20522;-63
2023/12/16 07:57:43;;;;;;;10.52;6.72;;;;;;;1.56;100.00;99689.22;5060516;28;20865;-63
2023/12/16 08:00:10;;;;;;;13.68;7.40;;;;;;;1.60;100.00;99700.47;5049898;28;20045;-64
2023/12/16 08:02:36;;;;;;;11.07;7.10;;;;;;;1.72;100.00;99710.06;5046507;28;20041;-64
2023/12/16 08:05:03;;;;;;;9.75;6.32;;;;;;;1.72;100.00;99702.03;5060159;28;20044;-64
2023/12/16 08:07:30;;;;;;;10.60;6.22;;;;;;;1.78;100.00;99704.19;5054608;28;20058;-63
2023/12/16 08:09:56;;;;;;;11.48;6.88;;;;;;;1.81;100.00;99703.88;5058336;28;20044;-64
2023/12/16 08:12:23;;;;;;;9.75;6.25;;;;;;;1.85;100.00;99712.50;5043329;28;20679;-63
2023/12/16 08:14:50;;;;;;;10.75;7.05;;;;;;;1.90;100.00;99720.94;5046987;28;20124;-64
2023/12/16 08:17:16;;;;;;;9.75;6.43;;;;;;;1.95;100.00;99721.34;5053834;28;20127;-64
2023/12/16 08:19:43;;;;;;;11.88;6.93;;;;;;;1.99;100.00;99713.91;5057034;28;20056;-64
2023/12/16 08:22:10;;;;;;;10.02;6.95;;;;;;;1.96;100.00;99714.19;5048955;28;20048;-64
2023/12/16 08:24:36;;;;;;;11.45;6.07;;;;;;;2.02;100.00;99712.78;5045735;28;20648;-64
2023/12/16 08:27:03;;;;;;;9.55;6.55;;;;;;;2.06;100.00;99708.84;5052247;28;20048;-64
2023/12/16 08:29:29;;;;;;;9.88;6.53;;;;;;;2.09;100.00;99711.25;5044475;28;20060;-64
2023/12/16 08:31:56;;;;;;;11.02;6.60;;;;;;;2.16;100.00;99709.72;5050496;28;20460;-64
2023/12/16 08:34:22;;;;;;;9.65;6.22;;;;;;;2.18;100.00;99710.41;5055288;28;20565;-64
2023/12/16 08:36:49;;;;;;;11.27;7.03;;;;;;;2.20;100.00;99715.63;5049947;28;20040;-64
2023/12/16 08:39:16;;;;;;;12.38;6.85;;;;;;;2.26;100.00;99728.44;5049126;28;20559;-64
2023/12/16 08:41:43;;;;;;;10.27;6.45;;;;;;;2.29;100.00;99725.47;5039341;28;20099;-64
2023/12/16 08:44:10;;;;;;;10.30;5.47;;;;;;;2.37;100.00;99730.13;5050406;28;20056;-64
2023/12/16 08:46:40;;;;;;;11.00;6.22;;;;;;;2.43;100.00;99726.88;5052482;28;20036;-64
2023/12/16 08:49:07;;;;;;;9.80;5.60;;;;;;;2.43;100.00;99723.38;5039887;28;20041;-64
2023/12/16 08:51:34;;;;;;;9.02;5.47;;;;;;;2.48;100.00;99729.16;5045521;28;20531;-64
2023/12/16 08:54:01;;;;;;;12.15;5.82;;;;;;;2.53;100.00;99734.06;5049618;28;20518;-64
2023/12/16 08:56:28;;;;;;;9.63;6.20;;;;;;;2.54;100.00;99733.09;5044827;28;20065;-63
2023/12/16 08:58:54;;;;;;;10.38;5.85;;;;;;;2.66;100.00;99748.00;5054384;28;20048;-64
2023/12/16 09:01:21;;;;;;;10.20;5.65;;;;;;;2.70;100.00;99743.22;5045640;28;20427;-64
2023/12/16 09:03:47;;;;;;;8.90;5.50;;;;;;;2.72;100.00;99742.09;5045044;28;20033;-64
2023/12/16 09:06:15;;;;;;;7.28;4.78;;;;;;;2.76;100.00;99741.81;5054081;28;20051;-64
2023/12/16 09:08:41;;;;;;;8.45;4.93;;;;;;;2.84;100.00;99747.28;5042624;28;20091;-64
2023/12/16 09:11:09;;;;;;;9.25;5.18;;;;;;;2.89;100.00;99746.84;5042802;28;20037;-64
2023/12/16 09:13:35;;;;;;;10.82;5.25;;;;;;;2.87;100.00;99752.34;5050018;28;20116;-64
2023/12/16 09:16:03;;;;;;;8.32;5.18;;;;;;;2.95;100.00;99747.13;5049991;28;20052;-64
2023/12/16 09:18:29;;;;;;;10.32;4.57;;;;;;;3.03;100.00;99753.59;5049864;28;20358;-64
2023/12/16 09:20:56;;;;;;;8.52;5.20;;;;;;;3.08;100.00;99760.19;5047474;28;20044;-63
2023/12/16 09:23:23;;;;;;;8.50;4.60;;;;;;;3.12;100.00;99769.63;5049059;28;20044;-63
2023/12/16 09:25:49;;;;;;;8.88;4.70;;;;;;;3.22;100.00;99768.75;5047617;28;20048;-63
2023/12/16 09:28:16;;;;;;;9.43;5.47;;;;;;;3.28;100.00;99762.00;5039339;28;20045;-63
2023/12/16 09:30:43;;;;;;;8.32;4.65;;;;;;;3.30;100.00;99765.34;5052134;28;20051;-63
2023/12/16 09:33:09;;;;;;;7.13;4.03;;;;;;;3.40;100.00;99776.03;5046592;28;20056;-64
2023/12/16 09:35:36;;;;;;;10.30;4.75;;;;;;;3.55;100.00;99779.09;5042869;28;20048;-63
2023/12/16 09:38:03;;;;;;;7.43;4.10;;;;;;;3.64;100.00;99778.19;5048174;28;20562;-63
2023/12/16 09:40:30;;;;;;;9.35;4.30;;;;;;;3.73;100.00;99773.81;5045566;28;20072;-63
2023/12/16 09:43:09;;;;;;;6.72;4.18;;;;;;;3.87;100.00;99770.63;5050888;28;20037;-63
2023/12/16 09:45:36;;;;;;;8.20;4.22;;;;;;;3.95;100.00;99766.38;5061598;28;20120;-63
2023/12/16 09:48:02;;;;;;;6.50;3.97;;;;;;;3.98;100.00;99760.72;5056381;28;20504;-63
2023/12/16 09:50:31;;;;;;;6.70;4.05;;;;;;;4.08;100.00;99766.00;5045930;28;20536;-63
2023/12/16 09:52:59;;;;;;;7.80;4.25;;;;;;;4.14;100.00;99774.31;5056074;28;20068;-62
2023/12/16 09:55:25;;;;;;;7.18;4.03;;;;;;;4.28;100.00;99770.25;5063257;28;20466;-63
2023/12/16 09:57:55;;;;;;;7.55;4.38;;;;;;;4.36;100.00;99765.97;5062832;28;20046;-63
2023/12/16 10:00:22;;;;;;;11.70;6.43;;;;;;;4.41;100.00;99759.16;5061592;28;20050;-62
2023/12/16 10:02:53;;;;;;;8.55;5.50;;;;;;;4.43;100.00;99753.63;5047121;28;20411;-63
2023/12/16 10:05:20;;;;;;;8.73;5.25;;;;;;;4.50;100.00;99768.09;5056346;28;20047;-62
2023/12/16 10:07:47;;;;;;;12.50;8.20;;;;;;;4.50;100.00;99767.28;5056147;28;20041;-62
2023/12/16 10:10:14;;;;;;;7.18;3.78;;;;;;;4.58;100.00;99756.63;5057759;28;20064;-62
2023/12/16 10:12:41;;;;;;;10.32;3.97;;;;;;;4.66;100.00;99753.16;5050261;28;20045;-62
2023/12/16 10:15:08;;;;;;;7.00;4.03;;;;;;;4.80;100.00;99757.16;5059315;28;20167;-63
2023/12/16 10:17:34;;;;;;;13.52;8.77;;;;;;;4.75;100.00;99757.59;5050880;28;20103;-62
2023/12/16 10:20:02;;;;;;;9.45;5.43;;;;;;;4.68;100.00;99752.00;5062127;28;20037;-62
2023/12/16 10:22:29;;;;;;;9.27;5.00;;;;;;;4.69;100.00;99747.50;5046821;28;20045;-63
2023/12/16 10:24:56;;;;;;;8.00;4.47;;;;;;;4.73;100.00;99745.34;5061149;28;20108;-63
2023/12/16 10:27:23;;;;;;;10.52;5.03;;;;;;;4.80;100.00;99741.03;5058588;28;20334;-63
2023/12/16 10:29:52;;;;;;;7.78;4.32;;;;;;;4.88;100.00;99749.16;5048656;28;20048;-62
2023/12/16 10:32:32;;;;;;;8.50;6.03;;;;;;;4.85;100.00;99745.91;5043509;28;20045;-63
2023/12/16 10:35:02;;;;;;;8.60;4.30;;;;;;;4.94;100.00;99740.47;5052942;28;20588;-63
2023/12/16 10:37:28;;;;;;;12.55;4.75;;;;;;;4.99;100.00;99739.16;5044570;28;20056;-63
2023/12/16 10:39:55;;;;;;;8.82;4.15;;;;;;;5.06;100.00;99732.97;5060894;28;20048;-63
2023/12/16 10:42:22;;;;;;;49.55;20.15;;;;;;;5.16;100.00;99740.94;5039168;28;20045;-62
2023/12/16 10:44:49;;;;;;;13.27;6.18;;;;;;;5.26;100.00;99738.16;5043179;28;20037;-63
2023/12/16 10:47:18;;;;;;;10.02;4.88;;;;;;;5.36;100.00;99734.50;5051491;28;20044;-62
2023/12/16 10:49:45;;;;;;;10.02;4.00;;;;;;;5.45;100.00;99734.41;5051038;28;20040;-62
2023/12/16 10:52:13;;;;;;;9.70;3.53;;;;;;;5.51;100.00;99730.22;5050262;28;20049;-63
2023/12/16 10:54:41;;;;;;;7.43;3.80;;;;;;;5.61;100.00;99722.06;5053136;28;20564;-63
2023/12/16 10:57:29;;;;;;;8.98;3.47;;;;;;;5.67;100.00;99724.09;5041024;28;20714;-63
2023/12/16 11:00:05;;;;;;;25.33;10.48;;;;;;;5.55;100.00;99717.31;5041749;28;20041;-62
2023/12/16 11:02:41;;;;;;;25.15;11.15;;;;;;;5.58;100.00;99725.91;5047242;28;20048;-63
2023/12/16 11:05:27;;;;;;;9.90;3.83;;;;;;;5.56;100.00;99719.84;5050688;28;20044;-63
2023/12/16 11:07:55;;;;;;;12.38;4.90;;;;;;;5.66;100.00;99714.34;5043033;28;20051;-62
2023/12/16 11:10:22;;;;;;;32.05;16.77;;;;;;;5.78;100.00;99706.81;5041421;28;20527;-63
2023/12/16 11:12:50;;;;;;;11.05;4.38;;;;;;;5.81;100.00;99709.19;5042255;28;20044;-63
2023/12/16 11:15:17;;;;;;;10.40;5.10;;;;;;;5.80;100.00;99709.34;5045196;28;20144;-62
2023/12/16 11:17:53;;;;;;;13.07;6.00;;;;;;;5.89;100.00;99705.66;5054435;28;20056;-63
2023/12/16 11:20:22;;;;;;;15.30;10.43;;;;;;;5.85;100.00;99710.53;5056046;28;20037;-63
2023/12/16 11:22:51;;;;;;;12.82;4.68;;;;;;;5.83;100.00;99715.22;5045618;28;20122;-63
2023/12/16 11:25:19;;;;;;;8.48;4.43;;;;;;;5.93;100.00;99720.47;5050552;28;20040;-63
2023/12/16 11:27:47;;;;;;;12.80;7.82;;;;;;;5.84;100.00;99706.19;5046045;28;20052;-62
2023/12/16 11:30:15;;;;;;;10.40;4.53;;;;;;;5.78;100.00;99709.50;5046921;28;20037;-62